sensor_id;sensor_type;location;lat;lon;timestamp;P1;durP1;ratioP1;P2;durP2;ratioP2
50495;SDS011;38806;51.554;5.704;2023-06-10T00:00:54;11.00;;;9.18;;
50495;SDS011;38806;51.554;5.704;2023-06-10T00:02:56;13.02;;;9.93;;
50495;SDS011;38806;51.554;5.704;2023-06-10T00:04:56;14.75;;;10.82;;
50495;SDS011;38806;51.554;5.704;2023-06-10T00:07:03;12.68;;;9.13;;
50495;SDS011;38806;51.554;5.704;2023-06-10T00:09:04;9.90;;;8.68;;
50495;SDS011;38806;51.554;5.704;2023-06-10T00:11:05;11.57;;;9.95;;
50495;SDS011;38806;51.554;5.704;2023-06-10T00:13:06;18.02;;;9.80;;
50495;SDS011;38806;51.554;5.704;2023-06-10T00:15:08;10.48;;;9.23;;
50495;SDS011;38806;51.554;5.704;2023-06-10T00:17:09;11.00;;;9.90;;
50495;SDS011;38806;51.554;5.704;2023-06-10T00:19:10;12.07;;;9.80;;
50495;SDS011;38806;51.554;5.704;2023-06-10T00:21:13;11.60;;;9.30;;
50495;SDS011;38806;51.554;5.704;2023-06-10T00:23:14;10.95;;;9.85;;
50495;SDS011;38806;51.554;5.704;2023-06-10T00:25:20;11.52;;;8.90;;
50495;SDS011;38806;51.554;5.704;2023-06-10T00:27:29;11.15;;;9.98;;
50495;SDS011;38806;51.554;5.704;2023-06-10T00:29:41;10.07;;;8.93;;
50495;SDS011;38806;51.554;5.704;2023-06-10T00:31:44;11.68;;;10.02;;
50495;SDS011;38806;51.554;5.704;2023-06-10T00:33:47;11.18;;;9.98;;
50495;SDS011;38806;51.554;5.704;2023-06-10T00:35:48;10.60;;;9.20;;
50495;SDS011;38806;51.554;5.704;2023-06-10T00:37:48;12.65;;;10.05;;
50495;SDS011;38806;51.554;5.704;2023-06-10T00:39:49;11.88;;;10.43;;
50495;SDS011;38806;51.554;5.704;2023-06-10T00:41:49;13.45;;;10.70;;
50495;SDS011;38806;51.554;5.704;2023-06-10T00:43:50;13.00;;;10.20;;
50495;SDS011;38806;51.554;5.704;2023-06-10T00:45:50;11.63;;;10.15;;
50495;SDS011;38806;51.554;5.704;2023-06-10T00:47:51;12.90;;;9.63;;
50495;SDS011;38806;51.554;5.704;2023-06-10T00:49:58;13.15;;;9.55;;
50495;SDS011;38806;51.554;5.704;2023-06-10T00:51:58;14.65;;;10.18;;
50495;SDS011;38806;51.554;5.704;2023-06-10T00:54:01;11.88;;;9.57;;
50495;SDS011;38806;51.554;5.704;2023-06-10T00:56:02;11.73;;;10.25;;
50495;SDS011;38806;51.554;5.704;2023-06-10T00:58:03;12.60;;;11.07;;
50495;SDS011;38806;51.554;5.704;2023-06-10T01:00:04;12.02;;;10.52;;
50495;SDS011;38806;51.554;5.704;2023-06-10T01:02:10;13.13;;;10.05;;
50495;SDS011;38806;51.554;5.704;2023-06-10T01:04:11;11.43;;;9.77;;
50495;SDS011;38806;51.554;5.704;2023-06-10T01:10:50;12.35;;;10.52;;
50495;SDS011;38806;51.554;5.704;2023-06-10T01:12:58;14.95;;;10.85;;
50495;SDS011;38806;51.554;5.704;2023-06-10T01:15:14;13.38;;;10.85;;
50495;SDS011;38806;51.554;5.704;2023-06-10T01:17:19;13.40;;;10.50;;
50495;SDS011;38806;51.554;5.704;2023-06-10T01:19:19;13.68;;;11.65;;
50495;SDS011;38806;51.554;5.704;2023-06-10T01:21:23;15.13;;;10.93;;
50495;SDS011;38806;51.554;5.704;2023-06-10T01:23:30;13.95;;;11.18;;
50495;SDS011;38806;51.554;5.704;2023-06-10T01:25:31;16.90;;;13.23;;
50495;SDS011;38806;51.554;5.704;2023-06-10T01:27:39;14.52;;;12.25;;
50495;SDS011;38806;51.554;5.704;2023-06-10T01:29:49;13.05;;;11.65;;
50495;SDS011;38806;51.554;5.704;2023-06-10T01:32:12;15.82;;;11.10;;
50495;SDS011;38806;51.554;5.704;2023-06-10T01:34:17;13.15;;;10.85;;
50495;SDS011;38806;51.554;5.704;2023-06-10T01:36:17;17.23;;;12.05;;
50495;SDS011;38806;51.554;5.704;2023-06-10T01:38:19;13.90;;;12.30;;
50495;SDS011;38806;51.554;5.704;2023-06-10T01:40:20;14.60;;;12.38;;
50495;SDS011;38806;51.554;5.704;2023-06-10T01:42:20;15.73;;;11.55;;
50495;SDS011;38806;51.554;5.704;2023-06-10T01:44:21;15.32;;;12.02;;
50495;SDS011;38806;51.554;5.704;2023-06-10T01:46:28;13.52;;;12.02;;
50495;SDS011;38806;51.554;5.704;2023-06-10T01:48:29;16.23;;;14.48;;
50495;SDS011;38806;51.554;5.704;2023-06-10T01:50:30;13.48;;;11.63;;
50495;SDS011;38806;51.554;5.704;2023-06-10T01:52:30;15.43;;;12.88;;
50495;SDS011;38806;51.554;5.704;2023-06-10T01:54:31;17.35;;;13.43;;
50495;SDS011;38806;51.554;5.704;2023-06-10T01:56:37;16.42;;;13.52;;
50495;SDS011;38806;51.554;5.704;2023-06-10T01:58:41;14.32;;;12.10;;
50495;SDS011;38806;51.554;5.704;2023-06-10T02:00:41;15.73;;;12.05;;
50495;SDS011;38806;51.554;5.704;2023-06-10T02:02:41;15.40;;;13.63;;
50495;SDS011;38806;51.554;5.704;2023-06-10T02:04:42;16.15;;;14.38;;
50495;SDS011;38806;51.554;5.704;2023-06-10T02:06:42;20.10;;;13.52;;
50495;SDS011;38806;51.554;5.704;2023-06-10T02:08:42;17.67;;;14.68;;
50495;SDS011;38806;51.554;5.704;2023-06-10T02:10:43;16.20;;;13.57;;
50495;SDS011;38806;51.554;5.704;2023-06-10T02:12:43;16.40;;;14.13;;
50495;SDS011;38806;51.554;5.704;2023-06-10T02:14:43;21.33;;;16.35;;
50495;SDS011;38806;51.554;5.704;2023-06-10T02:16:44;16.67;;;14.38;;
50495;SDS011;38806;51.554;5.704;2023-06-10T02:18:46;17.60;;;15.60;;
50495;SDS011;38806;51.554;5.704;2023-06-10T02:20:47;19.75;;;16.27;;
50495;SDS011;38806;51.554;5.704;2023-06-10T02:22:47;18.17;;;16.27;;
50495;SDS011;38806;51.554;5.704;2023-06-10T02:24:48;18.35;;;15.25;;
50495;SDS011;38806;51.554;5.704;2023-06-10T02:26:48;16.08;;;14.10;;
50495;SDS011;38806;51.554;5.704;2023-06-10T02:28:48;17.45;;;15.15;;
50495;SDS011;38806;51.554;5.704;2023-06-10T02:30:49;16.88;;;15.07;;
50495;SDS011;38806;51.554;5.704;2023-06-10T02:32:49;18.67;;;15.80;;
50495;SDS011;38806;51.554;5.704;2023-06-10T02:34:56;20.15;;;16.58;;
50495;SDS011;38806;51.554;5.704;2023-06-10T02:36:57;16.92;;;14.48;;
50495;SDS011;38806;51.554;5.704;2023-06-10T02:39:04;20.67;;;14.80;;
50495;SDS011;38806;51.554;5.704;2023-06-10T02:41:04;16.38;;;14.18;;
50495;SDS011;38806;51.554;5.704;2023-06-10T02:43:05;19.35;;;17.05;;
50495;SDS011;38806;51.554;5.704;2023-06-10T02:45:05;20.83;;;16.45;;
50495;SDS011;38806;51.554;5.704;2023-06-10T02:47:06;21.02;;;17.30;;
50495;SDS011;38806;51.554;5.704;2023-06-10T02:49:06;18.98;;;16.27;;
50495;SDS011;38806;51.554;5.704;2023-06-10T02:51:06;24.25;;;17.40;;
50495;SDS011;38806;51.554;5.704;2023-06-10T02:53:07;19.70;;;16.45;;
50495;SDS011;38806;51.554;5.704;2023-06-10T02:55:08;19.75;;;17.13;;
50495;SDS011;38806;51.554;5.704;2023-06-10T02:57:08;20.83;;;16.55;;
50495;SDS011;38806;51.554;5.704;2023-06-10T02:59:10;24.13;;;16.92;;
50495;SDS011;38806;51.554;5.704;2023-06-10T03:01:11;21.42;;;17.13;;
50495;SDS011;38806;51.554;5.704;2023-06-10T03:03:11;21.85;;;17.33;;
50495;SDS011;38806;51.554;5.704;2023-06-10T03:05:19;20.70;;;17.33;;
50495;SDS011;38806;51.554;5.704;2023-06-10T03:07:19;20.70;;;17.02;;
50495;SDS011;38806;51.554;5.704;2023-06-10T03:09:26;22.67;;;18.02;;
50495;SDS011;38806;51.554;5.704;2023-06-10T03:11:26;21.23;;;17.27;;
50495;SDS011;38806;51.554;5.704;2023-06-10T03:13:27;21.58;;;17.58;;
50495;SDS011;38806;51.554;5.704;2023-06-10T03:15:27;21.30;;;18.17;;
50495;SDS011;38806;51.554;5.704;2023-06-10T03:17:35;21.63;;;16.88;;
50495;SDS011;38806;51.554;5.704;2023-06-10T03:19:41;18.23;;;15.93;;
50495;SDS011;38806;51.554;5.704;2023-06-10T03:21:43;20.25;;;16.88;;
50495;SDS011;38806;51.554;5.704;2023-06-10T03:23:44;19.10;;;16.73;;
50495;SDS011;38806;51.554;5.704;2023-06-10T03:25:44;24.27;;;18.55;;
50495;SDS011;38806;51.554;5.704;2023-06-10T03:27:48;25.38;;;20.42;;
50495;SDS011;38806;51.554;5.704;2023-06-10T03:29:48;22.83;;;17.95;;
50495;SDS011;38806;51.554;5.704;2023-06-10T03:31:48;19.67;;;16.30;;
50495;SDS011;38806;51.554;5.704;2023-06-10T03:33:49;21.52;;;18.10;;
50495;SDS011;38806;51.554;5.704;2023-06-10T03:35:49;22.48;;;19.95;;
50495;SDS011;38806;51.554;5.704;2023-06-10T03:37:50;25.30;;;19.70;;
50495;SDS011;38806;51.554;5.704;2023-06-10T03:39:50;21.25;;;18.77;;
50495;SDS011;38806;51.554;5.704;2023-06-10T03:41:51;25.17;;;19.02;;
50495;SDS011;38806;51.554;5.704;2023-06-10T03:43:51;26.20;;;18.08;;
50495;SDS011;38806;51.554;5.704;2023-06-10T03:45:51;22.40;;;18.70;;
50495;SDS011;38806;51.554;5.704;2023-06-10T03:47:55;26.80;;;18.10;;
50495;SDS011;38806;51.554;5.704;2023-06-10T03:49:56;24.42;;;18.92;;
50495;SDS011;38806;51.554;5.704;2023-06-10T03:51:57;22.23;;;18.65;;
50495;SDS011;38806;51.554;5.704;2023-06-10T03:53:57;22.45;;;18.58;;
50495;SDS011;38806;51.554;5.704;2023-06-10T03:55:57;26.13;;;18.58;;
50495;SDS011;38806;51.554;5.704;2023-06-10T03:57:58;23.83;;;18.70;;
50495;SDS011;38806;51.554;5.704;2023-06-10T03:59:58;22.73;;;17.40;;
50495;SDS011;38806;51.554;5.704;2023-06-10T04:01:58;20.27;;;16.63;;
50495;SDS011;38806;51.554;5.704;2023-06-10T04:04:02;25.63;;;20.40;;
50495;SDS011;38806;51.554;5.704;2023-06-10T04:06:03;22.05;;;17.40;;
50495;SDS011;38806;51.554;5.704;2023-06-10T04:08:04;19.13;;;16.65;;
50495;SDS011;38806;51.554;5.704;2023-06-10T04:10:08;21.67;;;18.02;;
50495;SDS011;38806;51.554;5.704;2023-06-10T04:12:09;21.58;;;17.25;;
50495;SDS011;38806;51.554;5.704;2023-06-10T04:14:10;23.48;;;18.15;;
50495;SDS011;38806;51.554;5.704;2023-06-10T04:16:11;23.38;;;18.98;;
50495;SDS011;38806;51.554;5.704;2023-06-10T04:18:11;24.38;;;19.10;;
50495;SDS011;38806;51.554;5.704;2023-06-10T04:20:12;22.80;;;18.25;;
50495;SDS011;38806;51.554;5.704;2023-06-10T04:22:15;21.65;;;17.50;;
50495;SDS011;38806;51.554;5.704;2023-06-10T04:24:15;26.95;;;20.13;;
50495;SDS011;38806;51.554;5.704;2023-06-10T04:26:16;23.02;;;18.92;;
50495;SDS011;38806;51.554;5.704;2023-06-10T04:28:16;25.50;;;17.95;;
50495;SDS011;38806;51.554;5.704;2023-06-10T04:30:20;23.98;;;18.20;;
50495;SDS011;38806;51.554;5.704;2023-06-10T04:32:26;22.95;;;17.50;;
50495;SDS011;38806;51.554;5.704;2023-06-10T04:34:30;19.67;;;15.07;;
50495;SDS011;38806;51.554;5.704;2023-06-10T04:36:39;20.42;;;16.27;;
50495;SDS011;38806;51.554;5.704;2023-06-10T04:38:40;20.52;;;15.70;;
50495;SDS011;38806;51.554;5.704;2023-06-10T04:40:41;21.98;;;16.50;;
50495;SDS011;38806;51.554;5.704;2023-06-10T04:42:42;22.63;;;17.15;;
50495;SDS011;38806;51.554;5.704;2023-06-10T04:44:43;19.88;;;15.93;;
50495;SDS011;38806;51.554;5.704;2023-06-10T04:46:44;19.23;;;15.52;;
50495;SDS011;38806;51.554;5.704;2023-06-10T04:48:45;19.60;;;15.23;;
50495;SDS011;38806;51.554;5.704;2023-06-10T04:50:50;23.13;;;16.80;;
50495;SDS011;38806;51.554;5.704;2023-06-10T04:52:50;19.65;;;14.45;;
50495;SDS011;38806;51.554;5.704;2023-06-10T04:54:51;22.95;;;16.25;;
50495;SDS011;38806;51.554;5.704;2023-06-10T04:56:52;20.33;;;14.27;;
50495;SDS011;38806;51.554;5.704;2023-06-10T04:58:55;19.30;;;16.15;;
50495;SDS011;38806;51.554;5.704;2023-06-10T05:00:56;19.42;;;14.50;;
50495;SDS011;38806;51.554;5.704;2023-06-10T05:02:56;19.50;;;15.18;;
50495;SDS011;38806;51.554;5.704;2023-06-10T05:04:57;16.33;;;14.50;;
50495;SDS011;38806;51.554;5.704;2023-06-10T05:06:58;19.50;;;14.07;;
50495;SDS011;38806;51.554;5.704;2023-06-10T05:08:58;22.02;;;15.05;;
50495;SDS011;38806;51.554;5.704;2023-06-10T05:11:05;19.05;;;14.60;;
50495;SDS011;38806;51.554;5.704;2023-06-10T05:13:06;22.38;;;13.55;;
50495;SDS011;38806;51.554;5.704;2023-06-10T05:15:07;22.67;;;14.98;;
50495;SDS011;38806;51.554;5.704;2023-06-10T05:17:07;18.17;;;15.40;;
50495;SDS011;38806;51.554;5.704;2023-06-10T05:19:14;21.88;;;15.30;;
50495;SDS011;38806;51.554;5.704;2023-06-10T05:23:20;17.90;;;13.70;;
50495;SDS011;38806;51.554;5.704;2023-06-10T05:25:21;16.92;;;13.57;;
50495;SDS011;38806;51.554;5.704;2023-06-10T05:27:22;19.90;;;13.93;;
50495;SDS011;38806;51.554;5.704;2023-06-10T05:29:25;16.88;;;13.68;;
50495;SDS011;38806;51.554;5.704;2023-06-10T05:31:26;19.55;;;14.13;;
50495;SDS011;38806;51.554;5.704;2023-06-10T05:33:38;16.58;;;13.55;;
50495;SDS011;38806;51.554;5.704;2023-06-10T05:35:44;16.17;;;12.40;;
50495;SDS011;38806;51.554;5.704;2023-06-10T05:37:48;16.90;;;12.75;;
50495;SDS011;38806;51.554;5.704;2023-06-10T05:39:48;18.95;;;12.73;;
50495;SDS011;38806;51.554;5.704;2023-06-10T05:41:52;16.17;;;13.27;;
50495;SDS011;38806;51.554;5.704;2023-06-10T05:43:52;15.68;;;12.68;;
50495;SDS011;38806;51.554;5.704;2023-06-10T05:45:52;18.33;;;13.32;;
50495;SDS011;38806;51.554;5.704;2023-06-10T05:47:53;16.70;;;13.85;;
50495;SDS011;38806;51.554;5.704;2023-06-10T05:49:53;15.02;;;12.15;;
50495;SDS011;38806;51.554;5.704;2023-06-10T05:51:54;16.25;;;11.68;;
50495;SDS011;38806;51.554;5.704;2023-06-10T05:54:08;15.07;;;11.35;;
50495;SDS011;38806;51.554;5.704;2023-06-10T05:56:08;16.17;;;12.35;;
50495;SDS011;38806;51.554;5.704;2023-06-10T05:58:09;14.65;;;12.02;;
50495;SDS011;38806;51.554;5.704;2023-06-10T06:00:10;14.88;;;12.55;;
50495;SDS011;38806;51.554;5.704;2023-06-10T06:02:11;13.40;;;10.57;;
50495;SDS011;38806;51.554;5.704;2023-06-10T06:04:12;15.02;;;10.95;;
50495;SDS011;38806;51.554;5.704;2023-06-10T06:06:13;16.63;;;12.32;;
50495;SDS011;38806;51.554;5.704;2023-06-10T06:08:14;15.60;;;9.80;;
50495;SDS011;38806;51.554;5.704;2023-06-10T06:10:17;17.63;;;12.43;;
50495;SDS011;38806;51.554;5.704;2023-06-10T06:12:18;21.38;;;11.43;;
50495;SDS011;38806;51.554;5.704;2023-06-10T06:14:24;16.63;;;11.55;;
50495;SDS011;38806;51.554;5.704;2023-06-10T06:16:25;14.85;;;11.23;;
50495;SDS011;38806;51.554;5.704;2023-06-10T06:18:25;15.43;;;11.25;;
50495;SDS011;38806;51.554;5.704;2023-06-10T06:20:25;13.55;;;10.38;;
50495;SDS011;38806;51.554;5.704;2023-06-10T06:22:26;15.43;;;9.70;;
50495;SDS011;38806;51.554;5.704;2023-06-10T06:24:27;19.67;;;12.88;;
50495;SDS011;38806;51.554;5.704;2023-06-10T06:26:27;15.25;;;10.65;;
50495;SDS011;38806;51.554;5.704;2023-06-10T06:28:28;14.35;;;11.10;;
50495;SDS011;38806;51.554;5.704;2023-06-10T06:30:29;11.70;;;9.52;;
50495;SDS011;38806;51.554;5.704;2023-06-10T06:32:30;15.55;;;10.65;;
50495;SDS011;38806;51.554;5.704;2023-06-10T06:34:37;15.15;;;10.27;;
50495;SDS011;38806;51.554;5.704;2023-06-10T06:36:44;15.13;;;10.95;;
50495;SDS011;38806;51.554;5.704;2023-06-10T06:38:45;16.75;;;11.05;;
50495;SDS011;38806;51.554;5.704;2023-06-10T06:40:49;14.57;;;10.70;;
50495;SDS011;38806;51.554;5.704;2023-06-10T06:42:50;14.88;;;10.07;;
50495;SDS011;38806;51.554;5.704;2023-06-10T06:44:50;13.02;;;8.75;;
50495;SDS011;38806;51.554;5.704;2023-06-10T06:46:51;14.02;;;9.90;;
50495;SDS011;38806;51.554;5.704;2023-06-10T06:48:51;11.20;;;9.20;;
50495;SDS011;38806;51.554;5.704;2023-06-10T06:50:52;12.90;;;9.52;;
50495;SDS011;38806;51.554;5.704;2023-06-10T06:52:56;15.10;;;9.52;;
50495;SDS011;38806;51.554;5.704;2023-06-10T06:54:59;14.02;;;10.25;;
50495;SDS011;38806;51.554;5.704;2023-06-10T06:57:00;17.35;;;9.13;;
50495;SDS011;38806;51.554;5.704;2023-06-10T06:59:01;13.70;;;9.55;;
50495;SDS011;38806;51.554;5.704;2023-06-10T07:01:02;12.05;;;8.95;;
50495;SDS011;38806;51.554;5.704;2023-06-10T07:03:02;12.30;;;8.95;;
50495;SDS011;38806;51.554;5.704;2023-06-10T07:05:03;15.02;;;8.70;;
50495;SDS011;38806;51.554;5.704;2023-06-10T07:07:04;10.95;;;8.15;;
50495;SDS011;38806;51.554;5.704;2023-06-10T07:09:05;15.90;;;9.07;;
50495;SDS011;38806;51.554;5.704;2023-06-10T07:11:05;14.75;;;7.63;;
50495;SDS011;38806;51.554;5.704;2023-06-10T07:13:05;16.33;;;8.27;;
50495;SDS011;38806;51.554;5.704;2023-06-10T07:15:06;11.68;;;9.35;;
50495;SDS011;38806;51.554;5.704;2023-06-10T07:17:10;14.75;;;8.40;;
50495;SDS011;38806;51.554;5.704;2023-06-10T07:19:10;11.23;;;7.60;;
50495;SDS011;38806;51.554;5.704;2023-06-10T07:21:10;13.48;;;8.52;;
50495;SDS011;38806;51.554;5.704;2023-06-10T07:23:11;11.15;;;7.18;;
50495;SDS011;38806;51.554;5.704;2023-06-10T07:25:11;12.15;;;7.88;;
50495;SDS011;38806;51.554;5.704;2023-06-10T07:27:12;16.75;;;9.35;;
50495;SDS011;38806;51.554;5.704;2023-06-10T07:29:12;11.63;;;8.07;;
50495;SDS011;38806;51.554;5.704;2023-06-10T07:31:13;15.07;;;9.02;;
50495;SDS011;38806;51.554;5.704;2023-06-10T07:33:13;14.20;;;8.75;;
50495;SDS011;38806;51.554;5.704;2023-06-10T07:35:13;10.43;;;7.88;;
50495;SDS011;38806;51.554;5.704;2023-06-10T07:37:29;9.02;;;6.32;;
50495;SDS011;38806;51.554;5.704;2023-06-10T07:39:29;10.18;;;7.35;;
50495;SDS011;38806;51.554;5.704;2023-06-10T07:41:30;10.80;;;7.18;;
50495;SDS011;38806;51.554;5.704;2023-06-10T07:43:30;10.43;;;7.65;;
50495;SDS011;38806;51.554;5.704;2023-06-10T07:45:30;12.15;;;8.07;;
50495;SDS011;38806;51.554;5.704;2023-06-10T07:47:32;9.48;;;6.57;;
50495;SDS011;38806;51.554;5.704;2023-06-10T07:49:41;9.95;;;6.78;;
50495;SDS011;38806;51.554;5.704;2023-06-10T07:51:48;10.40;;;7.35;;
50495;SDS011;38806;51.554;5.704;2023-06-10T07:53:48;10.45;;;6.65;;
50495;SDS011;38806;51.554;5.704;2023-06-10T07:55:49;7.57;;;5.45;;
50495;SDS011;38806;51.554;5.704;2023-06-10T07:57:49;8.40;;;6.70;;
50495;SDS011;38806;51.554;5.704;2023-06-10T07:59:49;10.82;;;6.72;;
50495;SDS011;38806;51.554;5.704;2023-06-10T08:01:50;8.38;;;7.10;;
50495;SDS011;38806;51.554;5.704;2023-06-10T08:03:50;12.05;;;7.45;;
50495;SDS011;38806;51.554;5.704;2023-06-10T08:05:50;8.43;;;6.10;;
50495;SDS011;38806;51.554;5.704;2023-06-10T08:07:51;11.20;;;7.20;;
50495;SDS011;38806;51.554;5.704;2023-06-10T08:09:51;8.38;;;6.43;;
50495;SDS011;38806;51.554;5.704;2023-06-10T08:11:51;13.27;;;7.32;;
50495;SDS011;38806;51.554;5.704;2023-06-10T08:13:52;13.30;;;6.35;;
50495;SDS011;38806;51.554;5.704;2023-06-10T08:15:55;9.60;;;5.65;;
50495;SDS011;38806;51.554;5.704;2023-06-10T08:18:01;9.40;;;7.50;;
50495;SDS011;38806;51.554;5.704;2023-06-10T08:20:02;9.10;;;6.07;;
50495;SDS011;38806;51.554;5.704;2023-06-10T08:22:05;8.95;;;6.20;;
50495;SDS011;38806;51.554;5.704;2023-06-10T08:24:06;8.63;;;5.50;;
50495;SDS011;38806;51.554;5.704;2023-06-10T08:26:07;9.38;;;5.53;;
50495;SDS011;38806;51.554;5.704;2023-06-10T08:28:10;7.68;;;5.47;;
50495;SDS011;38806;51.554;5.704;2023-06-10T08:30:11;9.00;;;6.05;;
50495;SDS011;38806;51.554;5.704;2023-06-10T08:32:13;11.90;;;6.13;;
50495;SDS011;38806;51.554;5.704;2023-06-10T08:34:13;10.80;;;6.10;;
50495;SDS011;38806;51.554;5.704;2023-06-10T08:36:14;9.93;;;5.60;;
50495;SDS011;38806;51.554;5.704;2023-06-10T08:38:14;10.02;;;5.45;;
50495;SDS011;38806;51.554;5.704;2023-06-10T08:40:16;10.20;;;7.05;;
50495;SDS011;38806;51.554;5.704;2023-06-10T08:44:17;11.02;;;6.30;;
50495;SDS011;38806;51.554;5.704;2023-06-10T08:46:22;13.18;;;7.53;;
50495;SDS011;38806;51.554;5.704;2023-06-10T08:48:39;9.80;;;6.10;;
50495;SDS011;38806;51.554;5.704;2023-06-10T08:50:44;6.90;;;5.45;;
50495;SDS011;38806;51.554;5.704;2023-06-10T08:52:48;7.15;;;5.63;;
50495;SDS011;38806;51.554;5.704;2023-06-10T08:54:49;10.63;;;6.32;;
50495;SDS011;38806;51.554;5.704;2023-06-10T08:56:58;6.80;;;5.55;;
50495;SDS011;38806;51.554;5.704;2023-06-10T08:59:01;8.13;;;5.82;;
50495;SDS011;38806;51.554;5.704;2023-06-10T09:01:02;7.47;;;5.90;;
50495;SDS011;38806;51.554;5.704;2023-06-10T09:03:05;8.13;;;5.82;;
50495;SDS011;38806;51.554;5.704;2023-06-10T09:05:09;8.30;;;6.25;;
50495;SDS011;38806;51.554;5.704;2023-06-10T09:07:09;8.85;;;5.97;;
50495;SDS011;38806;51.554;5.704;2023-06-10T09:09:11;7.28;;;5.28;;
50495;SDS011;38806;51.554;5.704;2023-06-10T09:11:12;8.05;;;5.43;;
50495;SDS011;38806;51.554;5.704;2023-06-10T09:13:12;8.13;;;5.68;;
50495;SDS011;38806;51.554;5.704;2023-06-10T09:15:21;7.82;;;5.72;;
50495;SDS011;38806;51.554;5.704;2023-06-10T09:17:22;7.50;;;6.22;;
50495;SDS011;38806;51.554;5.704;2023-06-10T09:19:28;11.20;;;6.68;;
50495;SDS011;38806;51.554;5.704;2023-06-10T09:21:29;8.25;;;5.28;;
50495;SDS011;38806;51.554;5.704;2023-06-10T09:23:32;12.13;;;7.18;;
50495;SDS011;38806;51.554;5.704;2023-06-10T09:25:38;8.48;;;5.35;;
50495;SDS011;38806;51.554;5.704;2023-06-10T09:29:54;10.45;;;7.00;;
50495;SDS011;38806;51.554;5.704;2023-06-10T09:31:54;10.63;;;6.63;;
50495;SDS011;38806;51.554;5.704;2023-06-10T09:34:04;7.97;;;6.00;;
50495;SDS011;38806;51.554;5.704;2023-06-10T09:36:04;7.85;;;5.63;;
50495;SDS011;38806;51.554;5.704;2023-06-10T09:38:05;8.10;;;6.07;;
50495;SDS011;38806;51.554;5.704;2023-06-10T09:40:06;8.98;;;6.97;;
50495;SDS011;38806;51.554;5.704;2023-06-10T09:42:16;8.40;;;6.47;;
50495;SDS011;38806;51.554;5.704;2023-06-10T09:44:18;7.25;;;5.50;;
50495;SDS011;38806;51.554;5.704;2023-06-10T09:46:25;8.07;;;5.47;;
50495;SDS011;38806;51.554;5.704;2023-06-10T09:48:40;8.15;;;6.60;;
50495;SDS011;38806;51.554;5.704;2023-06-10T09:50:48;7.70;;;6.13;;
50495;SDS011;38806;51.554;5.704;2023-06-10T09:52:51;8.35;;;6.35;;
50495;SDS011;38806;51.554;5.704;2023-06-10T09:55:04;8.48;;;6.85;;
50495;SDS011;38806;51.554;5.704;2023-06-10T09:57:06;10.05;;;6.57;;
50495;SDS011;38806;51.554;5.704;2023-06-10T09:59:13;12.98;;;6.95;;
50495;SDS011;38806;51.554;5.704;2023-06-10T10:01:20;8.23;;;6.80;;
50495;SDS011;38806;51.554;5.704;2023-06-10T10:03:26;20.55;;;7.63;;
50495;SDS011;38806;51.554;5.704;2023-06-10T10:05:39;9.18;;;6.43;;
50495;SDS011;38806;51.554;5.704;2023-06-10T10:07:45;10.77;;;6.00;;
50495;SDS011;38806;51.554;5.704;2023-06-10T10:09:49;9.73;;;6.05;;
50495;SDS011;38806;51.554;5.704;2023-06-10T10:11:49;8.00;;;5.97;;
50495;SDS011;38806;51.554;5.704;2023-06-10T10:13:50;6.88;;;6.10;;
50495;SDS011;38806;51.554;5.704;2023-06-10T10:15:51;12.07;;;7.57;;
50495;SDS011;38806;51.554;5.704;2023-06-10T10:17:52;10.02;;;6.47;;
50495;SDS011;38806;51.554;5.704;2023-06-10T10:20:03;15.43;;;7.72;;
50495;SDS011;38806;51.554;5.704;2023-06-10T10:22:10;10.18;;;6.18;;
50495;SDS011;38806;51.554;5.704;2023-06-10T10:24:18;10.00;;;6.03;;
50495;SDS011;38806;51.554;5.704;2023-06-10T10:26:18;8.35;;;6.70;;
50495;SDS011;38806;51.554;5.704;2023-06-10T10:28:21;9.70;;;6.53;;
50495;SDS011;38806;51.554;5.704;2023-06-10T10:30:24;12.80;;;6.82;;
50495;SDS011;38806;51.554;5.704;2023-06-10T10:32:43;9.68;;;7.07;;
50495;SDS011;38806;51.554;5.704;2023-06-10T10:34:49;9.43;;;6.55;;
50495;SDS011;38806;51.554;5.704;2023-06-10T10:38:54;9.45;;;7.55;;
50495;SDS011;38806;51.554;5.704;2023-06-10T10:40:54;10.20;;;6.57;;
50495;SDS011;38806;51.554;5.704;2023-06-10T10:42:59;8.77;;;6.38;;
50495;SDS011;38806;51.554;5.704;2023-06-10T10:45:03;7.50;;;6.72;;
50495;SDS011;38806;51.554;5.704;2023-06-10T10:47:04;9.43;;;6.20;;
50495;SDS011;38806;51.554;5.704;2023-06-10T10:49:11;11.00;;;6.60;;
50495;SDS011;38806;51.554;5.704;2023-06-10T10:51:12;7.68;;;5.15;;
50495;SDS011;38806;51.554;5.704;2023-06-10T10:53:15;10.30;;;6.47;;
50495;SDS011;38806;51.554;5.704;2023-06-10T10:55:26;7.50;;;6.32;;
50495;SDS011;38806;51.554;5.704;2023-06-10T10:57:28;7.25;;;5.93;;
50495;SDS011;38806;51.554;5.704;2023-06-10T11:01:50;9.65;;;7.85;;
50495;SDS011;38806;51.554;5.704;2023-06-10T11:04:00;8.52;;;6.22;;
50495;SDS011;38806;51.554;5.704;2023-06-10T11:06:04;9.88;;;6.60;;
50495;SDS011;38806;51.554;5.704;2023-06-10T11:08:12;8.07;;;6.40;;
50495;SDS011;38806;51.554;5.704;2023-06-10T11:10:15;8.55;;;6.43;;
50495;SDS011;38806;51.554;5.704;2023-06-10T11:12:22;9.02;;;6.30;;
50495;SDS011;38806;51.554;5.704;2023-06-10T11:16:45;7.47;;;6.00;;
50495;SDS011;38806;51.554;5.704;2023-06-10T11:18:47;11.00;;;7.00;;
50495;SDS011;38806;51.554;5.704;2023-06-10T11:22:58;6.97;;;5.78;;
50495;SDS011;38806;51.554;5.704;2023-06-10T11:24:59;7.00;;;6.30;;
50495;SDS011;38806;51.554;5.704;2023-06-10T11:29:19;11.95;;;6.80;;
50495;SDS011;38806;51.554;5.704;2023-06-10T11:31:21;8.23;;;5.80;;
50495;SDS011;38806;51.554;5.704;2023-06-10T11:33:21;8.75;;;6.40;;
50495;SDS011;38806;51.554;5.704;2023-06-10T11:35:23;9.25;;;6.25;;
50495;SDS011;38806;51.554;5.704;2023-06-10T11:37:23;7.75;;;5.68;;
50495;SDS011;38806;51.554;5.704;2023-06-10T11:39:27;7.23;;;6.07;;
50495;SDS011;38806;51.554;5.704;2023-06-10T11:41:32;8.65;;;6.38;;
50495;SDS011;38806;51.554;5.704;2023-06-10T11:43:48;9.38;;;6.75;;
50495;SDS011;38806;51.554;5.704;2023-06-10T11:45:53;6.65;;;5.88;;
50495;SDS011;38806;51.554;5.704;2023-06-10T11:47:59;8.70;;;6.75;;
50495;SDS011;38806;51.554;5.704;2023-06-10T11:50:03;10.13;;;7.20;;
50495;SDS011;38806;51.554;5.704;2023-06-10T11:52:04;6.90;;;6.20;;
50495;SDS011;38806;51.554;5.704;2023-06-10T11:54:05;6.88;;;5.63;;
50495;SDS011;38806;51.554;5.704;2023-06-10T11:56:09;10.80;;;6.47;;
50495;SDS011;38806;51.554;5.704;2023-06-10T11:58:15;9.20;;;5.75;;
50495;SDS011;38806;51.554;5.704;2023-06-10T12:00:16;8.23;;;6.30;;
50495;SDS011;38806;51.554;5.704;2023-06-10T12:02:23;8.25;;;5.70;;
50495;SDS011;38806;51.554;5.704;2023-06-10T12:04:29;7.38;;;6.57;;
50495;SDS011;38806;51.554;5.704;2023-06-10T12:08:47;7.03;;;6.32;;
50495;SDS011;38806;51.554;5.704;2023-06-10T12:10:47;8.03;;;7.23;;
50495;SDS011;38806;51.554;5.704;2023-06-10T12:12:49;8.18;;;6.00;;
50495;SDS011;38806;51.554;5.704;2023-06-10T12:14:56;7.40;;;5.90;;
50495;SDS011;38806;51.554;5.704;2023-06-10T12:17:00;9.55;;;6.22;;
50495;SDS011;38806;51.554;5.704;2023-06-10T12:19:04;7.13;;;6.20;;
50495;SDS011;38806;51.554;5.704;2023-06-10T12:21:19;8.15;;;6.63;;
50495;SDS011;38806;51.554;5.704;2023-06-10T12:23:23;11.27;;;6.63;;
50495;SDS011;38806;51.554;5.704;2023-06-10T12:25:27;7.82;;;6.45;;
50495;SDS011;38806;51.554;5.704;2023-06-10T12:27:28;8.43;;;6.60;;
50495;SDS011;38806;51.554;5.704;2023-06-10T12:29:29;8.00;;;6.55;;